Time;durP1;ratioP1;P1;durP2;ratioP2;P2;SDS_P1;SDS_P2;PMS_P1;PMS_P2;Temp;Humidity;BMP_temperature;BMP_pressure;BME280_temperature;BME280_humidity;BME280_pressure;Samples;Min_cycle;Max_cycle;Signal;HPM_P1;HPM_P2
2022/07/09 00:01:04;;;;;;;12.43;5.45;;;;;;;15.45;100.00;102771.47;4975475;28;20073;-79
2022/07/09 00:03:32;;;;;;;9.83;5.13;;;;;;;15.46;100.00;102773.25;4934036;28;20036;-78
2022/07/09 00:06:02;;;;;;;7.88;5.13;;;;;;;15.47;100.00;102770.63;4992053;28;20042;-78
2022/07/09 00:08:31;;;;;;;12.90;5.55;;;;;;;15.48;100.00;102772.41;4977346;28;20450;-79
2022/07/09 00:11:00;;;;;;;12.20;5.25;;;;;;;15.50;100.00;102773.31;4978602;28;20057;-78
2022/07/09 00:13:29;;;;;;;14.40;6.05;;;;;;;15.50;100.00;102773.31;4979369;28;20276;-78
2022/07/09 00:15:57;;;;;;;13.82;5.82;;;;;;;15.52;100.00;102776.88;4994034;28;20057;-78
2022/07/09 00:18:26;;;;;;;14.50;5.68;;;;;;;15.53;100.00;102767.16;4973563;28;20427;-78
2022/07/09 00:20:55;;;;;;;10.50;4.65;;;;;;;15.53;100.00;102760.06;4946090;28;20403;-78
2022/07/09 00:23:23;;;;;;;13.73;4.70;;;;;;;15.55;100.00;102763.63;4991478;28;20155;-79
2022/07/09 00:25:52;;;;;;;12.50;5.43;;;;;;;15.58;100.00;102765.44;4973354;28;20050;-78
2022/07/09 00:28:21;;;;;;;14.68;5.68;;;;;;;15.61;100.00;102765.47;4986781;28;20046;-78
2022/07/09 00:30:49;;;;;;;13.27;5.82;;;;;;;15.64;100.00;102761.97;4989760;28;20046;-79
2022/07/09 00:33:18;;;;;;;8.43;4.50;;;;;;;15.66;100.00;102771.75;4979891;28;20050;-78
2022/07/09 00:35:47;;;;;;;12.45;4.75;;;;;;;15.70;100.00;102754.06;4976946;28;20038;-79
2022/07/09 00:38:18;;;;;;;12.85;5.82;;;;;;;15.72;100.00;102752.31;4973009;28;20042;-78
2022/07/09 00:40:46;;;;;;;12.10;5.05;;;;;;;15.72;100.00;102753.22;4971900;28;20058;-78
2022/07/09 00:43:16;;;;;;;13.23;5.57;;;;;;;15.74;100.00;102755.94;4967840;28;20432;-78
2022/07/09 00:45:45;;;;;;;10.57;5.55;;;;;;;15.73;100.00;102752.38;4999150;28;20122;-79
2022/07/09 00:48:14;;;;;;;11.07;5.88;;;;;;;15.72;100.00;102739.91;4991223;28;20058;-79
2022/07/09 00:50:44;;;;;;;10.40;6.00;;;;;;;15.72;100.00;102733.72;4956341;28;20045;-78
2022/07/09 00:53:15;;;;;;;19.50;6.22;;;;;;;15.71;100.00;102737.28;4969689;28;20038;-79
2022/07/09 00:55:44;;;;;;;9.90;5.70;;;;;;;15.71;100.00;102729.31;4993821;28;20061;-79
2022/07/09 00:58:15;;;;;;;8.85;6.15;;;;;;;15.68;100.00;102731.91;4977673;28;20275;-78
2022/07/09 01:00:44;;;;;;;13.38;6.18;;;;;;;15.68;100.00;102730.13;4973964;28;20500;-78
2022/07/09 01:03:13;;;;;;;10.10;6.25;;;;;;;15.66;100.00;102728.34;4985682;28;20049;-78
2022/07/09 01:05:42;;;;;;;15.60;6.43;;;;;;;15.65;100.00;102729.19;4950773;28;20053;-78
2022/07/09 01:08:11;;;;;;;11.90;7.43;;;;;;;15.64;100.00;102727.44;4952237;28;20264;-78
2022/07/09 01:10:43;;;;;;;11.07;7.00;;;;;;;15.62;100.00;102716.78;4963949;28;20065;-78
2022/07/09 01:13:12;;;;;;;11.45;6.97;;;;;;;15.58;100.00;102705.22;4962077;28;20671;-78
2022/07/09 01:15:41;;;;;;;10.80;6.90;;;;;;;15.58;100.00;102713.19;4987769;28;20400;-78
2022/07/09 01:18:11;;;;;;;12.00;7.20;;;;;;;15.59;100.00;102712.34;4970882;28;20050;-78
2022/07/09 01:20:39;;;;;;;9.70;6.73;;;;;;;15.58;100.00;102713.19;4953975;28;20042;-79
2022/07/09 01:23:08;;;;;;;13.13;7.10;;;;;;;15.54;100.00;102708.72;4971237;28;20523;-79
2022/07/09 01:25:39;;;;;;;12.85;7.45;;;;;;;15.54;100.00;102705.19;4956820;28;20054;-79
2022/07/09 01:28:09;;;;;;;11.63;7.82;;;;;;;15.51;100.00;102706.00;4973176;28;20045;-78
2022/07/09 01:30:41;;;;;;;10.68;7.40;;;;;;;15.50;100.00;102712.22;4986390;28;20042;-78
2022/07/09 01:33:09;;;;;;;14.60;7.85;;;;;;;15.50;100.00;102711.28;4955647;28;20047;-80
2022/07/09 01:35:37;;;;;;;9.32;7.07;;;;;;;15.49;100.00;102707.75;4958155;28;20042;-78
2022/07/09 01:38:06;;;;;;;11.95;7.65;;;;;;;15.48;100.00;102702.41;4936580;28;20632;-78
2022/07/09 01:40:34;;;;;;;11.02;7.55;;;;;;;15.47;100.00;102698.88;4956439;28;20066;-78
2022/07/09 01:43:06;;;;;;;;;;;;;;;15.49;100.00;102691.81;4985080;28;20046;-78
2022/07/09 01:45:35;;;;;;;19.20;8.02;;;;;;;15.49;100.00;102686.50;5003874;28;19922;-78
2022/07/09 01:48:04;;;;;;;13.35;8.02;;;;;;;15.51;100.00;102689.19;4980734;28;20535;-78
2022/07/09 01:50:34;;;;;;;12.88;7.43;;;;;;;15.53;100.00;102688.31;4993380;28;20069;-78
2022/07/09 01:53:03;;;;;;;11.93;7.38;;;;;;;15.58;100.00;102696.38;4949538;28;20052;-80
2022/07/09 01:55:32;;;;;;;14.83;8.10;;;;;;;15.59;100.00;102693.72;4977645;28;20050;-78
2022/07/09 01:58:01;;;;;;;14.55;7.47;;;;;;;15.60;100.00;102694.63;4951010;28;20313;-78
2022/07/09 02:00:29;;;;;;;18.15;8.18;;;;;;;15.62;100.00;102686.66;4966973;28;20169;-79
2022/07/09 02:02:58;;;;;;;11.35;7.25;;;;;;;15.62;100.00;102686.66;4971242;28;20055;-80
2022/07/09 02:05:27;;;;;;;17.00;7.53;;;;;;;15.62;100.00;102674.25;4970020;28;20535;-78
2022/07/09 02:07:56;;;;;;;20.00;8.32;;;;;;;15.63;100.00;102675.16;4922119;28;20054;-78
2022/07/09 02:10:24;;;;;;;15.27;8.48;;;;;;;15.64;100.00;102667.19;4967994;28;20044;-78
2022/07/09 02:12:53;;;;;;;18.15;8.65;;;;;;;15.64;100.00;102664.53;4973309;28;20047;-78
2022/07/09 02:15:22;;;;;;;17.70;7.88;;;;;;;15.67;100.00;102663.66;4965094;28;20423;-79
2022/07/09 02:17:51;;;;;;;17.10;8.15;;;;;;;15.68;100.00;102670.78;4981388;28;20058;-78
2022/07/09 02:20:20;;;;;;;21.45;8.93;;;;;;;15.67;100.00;102672.56;4967648;28;20043;-78
2022/07/09 02:22:49;;;;;;;15.93;8.20;;;;;;;15.68;100.00;102668.13;4935733;28;20042;-78
2022/07/09 02:25:17;;;;;;;13.70;7.00;;;;;;;15.70;100.00;102671.69;4954611;28;20600;-78
2022/07/09 02:27:47;;;;;;;17.92;8.80;;;;;;;15.70;100.00;102658.41;4972911;28;20050;-78
2022/07/09 02:30:17;;;;;;;15.93;9.38;;;;;;;15.69;100.00;102653.94;4952104;28;20050;-78
2022/07/09 02:32:47;;;;;;;21.17;9.18;;;;;;;15.67;100.00;102648.63;4953681;28;20050;-79
2022/07/09 02:35:15;;;;;;;16.65;8.38;;;;;;;15.67;100.00;102653.94;4964307;28;20176;-78
2022/07/09 02:37:44;;;;;;;20.88;9.50;;;;;;;15.67;100.00;102655.69;4971644;28;20063;-78
2022/07/09 02:40:14;;;;;;;13.88;8.32;;;;;;;15.65;100.00;102657.44;4934549;28;20039;-80
2022/07/09 02:42:42;;;;;;;16.85;9.80;;;;;;;15.65;100.00;102660.09;4980147;28;20054;-78
2022/07/09 02:45:14;;;;;;;19.73;9.45;;;;;;;15.63;100.00;102652.09;4983191;28;20074;-78
2022/07/09 02:47:42;;;;;;;20.90;10.05;;;;;;;15.65;100.00;102650.38;4962741;28;20035;-79
2022/07/09 02:50:11;;;;;;;16.10;8.65;;;;;;;15.62;100.00;102638.84;4949891;28;20248;-78
2022/07/09 02:52:39;;;;;;;19.65;9.85;;;;;;;15.62;100.00;102634.41;4978765;28;20046;-80
2022/07/09 02:55:08;;;;;;;16.70;10.27;;;;;;;15.62;100.00;102633.53;4927124;28;20500;-79
2022/07/09 02:57:36;;;;;;;19.70;9.30;;;;;;;15.61;100.00;102635.25;4973055;28;20051;-79
2022/07/09 03:00:06;;;;;;;23.05;9.57;;;;;;;15.60;100.00;102641.47;4974107;28;20046;-78
2022/07/09 03:02:37;;;;;;;17.33;8.85;;;;;;;15.57;100.00;102631.69;4986929;28;20046;-78
2022/07/09 03:05:06;;;;;;;13.68;9.07;;;;;;;15.55;100.00;102620.16;5007484;28;20076;-79
2022/07/09 03:07:35;;;;;;;24.67;10.10;;;;;;;15.54;100.00;102622.81;5012866;28;20050;-79
2022/07/09 03:10:05;;;;;;;23.98;9.55;;;;;;;15.50;100.00;102619.22;4945312;28;20048;-78
2022/07/09 03:12:33;;;;;;;20.42;8.85;;;;;;;15.48;100.00;102625.38;4977863;28;20050;-79
2022/07/09 03:15:02;;;;;;;24.83;9.80;;;;;;;15.46;100.00;102617.38;4973977;28;20057;-79
2022/07/09 03:17:31;;;;;;;21.10;9.52;;;;;;;15.44;100.00;102623.56;4966453;28;20042;-79
2022/07/09 03:20:01;;;;;;;15.57;9.30;;;;;;;15.43;100.00;102619.16;4981831;28;20046;-78
2022/07/09 03:22:31;;;;;;;19.88;10.00;;;;;;;15.40;100.00;102617.31;5005138;28;20182;-78
2022/07/09 03:25:00;;;;;;;18.85;10.23;;;;;;;15.38;100.00;102619.94;4974713;28;20057;-78
2022/07/09 03:27:29;;;;;;;22.80;9.75;;;;;;;15.36;100.00;102623.47;4983796;28;20257;-79
2022/07/09 03:29:59;;;;;;;23.33;10.45;;;;;;;15.34;100.00;102623.44;4965857;28;20049;-78
2022/07/09 03:32:27;;;;;;;21.80;9.65;;;;;;;15.32;100.00;102629.63;4973854;28;20038;-78
2022/07/09 03:34:56;;;;;;;25.10;10.20;;;;;;;15.30;100.00;102624.28;4987904;28;20062;-79
2022/07/09 03:37:25;;;;;;;21.85;10.05;;;;;;;15.29;100.00;102627.84;4961293;28;20076;-78
2022/07/09 03:40:03;;;;;;;20.33;10.20;;;;;;;15.28;100.00;102623.38;4995568;28;20060;-78
2022/07/09 03:42:32;;;;;;;23.02;10.07;;;;;;;15.29;100.00;102624.28;4986044;28;20653;-79
2022/07/09 03:45:00;;;;;;;26.38;10.20;;;;;;;15.28;100.00;102622.50;4989157;28;20046;-79
2022/07/09 03:47:29;;;;;;;24.95;10.32;;;;;;;15.30;100.00;102623.41;4989903;28;20423;-79
2022/07/09 03:49:57;;;;;;;21.58;9.27;;;;;;;15.32;100.00;102619.00;4964232;28;20523;-79
2022/07/09 03:52:25;;;;;;;20.65;8.98;;;;;;;15.32;100.00;102613.69;4992792;28;20042;-79
2022/07/09 03:54:57;;;;;;;24.73;8.30;;;;;;;15.33;100.00;102611.06;4967177;28;20057;-78
2022/07/09 03:57:26;;;;;;;18.25;7.68;;;;;;;15.36;100.00;102615.50;4954826;28;20058;-79
2022/07/09 03:59:56;;;;;;;14.25;7.55;;;;;;;15.40;100.00;102617.31;4964883;28;20050;-79
2022/07/09 04:02:24;;;;;;;19.73;8.20;;;;;;;15.42;100.00;102614.69;4988727;28;20168;-79
2022/07/09 04:04:56;;;;;;;13.52;6.90;;;;;;;15.44;100.00;102619.13;4972464;28;20049;-79
2022/07/09 04:07:26;;;;;;;14.98;6.70;;;;;;;15.45;100.00;102620.03;4997459;28;20045;-79
2022/07/09 04:09:55;;;;;;;18.13;7.38;;;;;;;15.46;100.00;102619.16;4975379;28;20053;-79
2022/07/09 04:12:23;;;;;;;19.30;7.78;;;;;;;15.47;100.00;102618.28;4963027;28;20389;-79
2022/07/09 04:14:52;;;;;;;16.92;7.68;;;;;;;15.48;100.00;102614.75;4981882;28;20054;-78
2022/07/09 04:17:20;;;;;;;11.40;6.85;;;;;;;15.49;100.00;102609.47;4987345;28;20062;-79
2022/07/09 04:19:49;;;;;;;11.90;6.10;;;;;;;15.51;100.00;102617.44;4991388;28;20550;-79
2022/07/09 04:22:17;;;;;;;13.35;7.07;;;;;;;15.52;100.00;102621.88;4953746;28;20046;-79
2022/07/09 04:24:46;;;;;;;13.82;6.00;;;;;;;15.54;100.00;102623.69;4976163;28;20402;-79
2022/07/09 04:27:15;;;;;;;8.88;5.70;;;;;;;15.54;100.00;102621.03;4942413;28;20046;-78
2022/07/09 04:29:43;;;;;;;12.07;5.72;;;;;;;15.55;100.00;102622.81;5005289;28;20065;-79
2022/07/09 04:32:12;;;;;;;17.38;6.15;;;;;;;15.59;100.00;102637.00;4982711;28;20058;-78
2022/07/09 04:34:41;;;;;;;14.40;5.47;;;;;;;15.63;100.00;102629.97;5009966;28;20061;-79
2022/07/09 04:37:10;;;;;;;10.35;5.72;;;;;;;15.65;100.00;102633.53;4981674;28;20046;-78
2022/07/09 04:39:41;;;;;;;8.57;5.03;;;;;;;15.67;100.00;102629.13;4985903;28;20501;-79
2022/07/09 04:42:12;;;;;;;12.18;5.68;;;;;;;15.69;100.00;102630.94;4946527;28;20059;-78
2022/07/09 04:44:42;;;;;;;13.75;5.40;;;;;;;15.72;100.00;102628.28;4977916;28;20040;-79
2022/07/09 04:47:11;;;;;;;9.38;5.10;;;;;;;15.75;100.00;102628.38;4975763;28;20046;-79
2022/07/09 04:49:40;;;;;;;9.75;4.97;;;;;;;15.78;100.00;102630.16;4962183;28;20057;-79
2022/07/09 04:52:08;;;;;;;13.18;5.47;;;;;;;15.82;100.00;102631.09;4985179;28;20069;-78
2022/07/09 04:54:37;;;;;;;8.90;5.45;;;;;;;15.85;100.00;102626.69;4969394;28;20038;-78
2022/07/09 04:57:06;;;;;;;15.60;5.95;;;;;;;15.90;100.00;102624.09;4985405;28;20053;-78
2022/07/09 04:59:34;;;;;;;8.18;5.60;;;;;;;15.93;100.00;102624.09;4945351;28;20513;-78
2022/07/09 05:02:03;;;;;;;9.05;5.13;;;;;;;15.95;100.00;102617.03;4978819;28;20395;-79
2022/07/09 05:04:32;;;;;;;10.60;5.00;;;;;;;15.98;100.00;102625.03;4983554;28;20046;-79
2022/07/09 05:07:01;;;;;;;11.57;5.95;;;;;;;16.01;100.00;102627.75;4978268;28;20904;-79
2022/07/09 05:09:29;;;;;;;10.57;5.85;;;;;;;16.02;100.00;102616.22;4963547;28;20140;-79
2022/07/09 05:11:58;;;;;;;10.38;5.93;;;;;;;16.04;100.00;102624.22;4965695;28;20068;-79
2022/07/09 05:14:26;;;;;;;15.30;5.72;;;;;;;16.05;100.00;102612.66;4962593;28;20037;-79
2022/07/09 05:16:57;;;;;;;11.23;6.05;;;;;;;16.07;100.00;102622.47;4979231;28;20050;-79
2022/07/09 05:19:26;;;;;;;13.02;6.68;;;;;;;16.08;100.00;102615.38;4968569;28;20104;-79
2022/07/09 05:21:55;;;;;;;9.15;5.70;;;;;;;16.10;100.00;102613.63;4971187;28;20057;-79
2022/07/09 05:24:23;;;;;;;11.93;6.05;;;;;;;16.12;100.00;102620.75;4971433;28;20061;-79
2022/07/09 05:26:52;;;;;;;9.48;5.22;;;;;;;16.13;100.00;102613.66;4953598;28;20065;-79
2022/07/09 05:29:22;;;;;;;12.88;6.47;;;;;;;16.17;100.00;102604.81;4942774;28;21174;-78
2022/07/09 05:31:50;;;;;;;14.52;6.03;;;;;;;16.20;100.00;102606.59;4961316;28;20038;-79
2022/07/09 05:34:19;;;;;;;10.38;5.57;;;;;;;16.22;100.00;102607.50;4991178;28;20042;-79
2022/07/09 05:36:47;;;;;;;8.77;5.05;;;;;;;16.23;100.00;102602.19;4977381;28;20399;-79
2022/07/09 05:39:16;;;;;;;11.10;5.72;;;;;;;16.26;100.00;102599.56;4975612;28;20288;-79
2022/07/09 05:41:44;;;;;;;9.45;5.63;;;;;;;16.29;100.00;102602.22;4994589;28;20046;-79
2022/07/09 05:44:13;;;;;;;10.38;5.40;;;;;;;16.34;100.00;102605.81;4932305;28;20046;-79
2022/07/09 05:46:43;;;;;;;14.20;5.93;;;;;;;16.36;100.00;102608.50;4978959;28;20038;-79
2022/07/09 05:49:14;;;;;;;16.73;6.72;;;;;;;16.37;100.00;102605.84;5008043;28;20183;-79
2022/07/09 05:51:43;;;;;;;9.05;5.45;;;;;;;16.41;100.00;102611.19;4975632;28;20503;-79
2022/07/09 05:54:11;;;;;;;11.40;5.95;;;;;;;16.41;100.00;102609.44;4964606;28;20050;-80
2022/07/09 05:56:41;;;;;;;8.90;5.65;;;;;;;16.43;100.00;102614.78;4978140;28;20054;-78
2022/07/09 05:59:09;;;;;;;12.75;5.70;;;;;;;16.45;100.00;102615.66;4991721;28;20065;-79
2022/07/09 06:01:42;;;;;;;9.63;5.70;;;;;;;16.44;100.00;102606.78;4943988;28;20396;-79
2022/07/09 06:04:11;;;;;;;13.55;5.97;;;;;;;16.46;100.00;102606.78;5004790;28;20339;-77
2022/07/09 06:06:40;;;;;;;10.93;5.90;;;;;;;16.49;100.00;102607.72;4968947;28;20404;-77
2022/07/09 06:09:08;;;;;;;10.02;5.90;;;;;;;16.55;100.00;102598.88;4977300;28;20041;-80
2022/07/09 06:11:37;;;;;;;12.90;5.68;;;;;;;16.61;100.00;102606.88;5007536;28;20045;-79
2022/07/09 06:14:06;;;;;;;8.85;5.22;;;;;;;16.67;100.00;102612.28;4975680;28;20046;-79
2022/07/09 06:16:34;;;;;;;7.05;4.68;;;;;;;16.74;100.00;102608.72;4962787;28;20371;-78
2022/07/09 06:19:03;;;;;;;7.40;4.45;;;;;;;16.82;100.00;102605.22;4982391;28;20364;-78
2022/07/09 06:21:32;;;;;;;11.80;5.07;;;;;;;16.89;100.00;102599.09;4974041;28;20046;-79
2022/07/09 06:24:00;;;;;;;8.40;4.72;;;;;;;16.94;100.00;102614.22;4975614;28;20042;-78
2022/07/09 06:26:30;;;;;;;11.23;5.35;;;;;;;16.99;100.00;102608.00;4986690;28;20324;-79
2022/07/09 06:28:59;;;;;;;12.93;4.68;;;;;;;17.00;100.00;102602.69;4980828;28;20288;-78
2022/07/09 06:31:27;;;;;;;13.52;4.75;;;;;;;16.99;100.00;102602.69;4924436;28;20062;-79
2022/07/09 06:33:58;;;;;;;7.40;3.95;;;;;;;17.00;100.00;102601.81;4994377;28;20057;-78
2022/07/09 06:36:28;;;;;;;;;;;;;;;17.00;100.00;102602.69;4994593;28;20217;-78
2022/07/09 06:41:43;;;;;;;10.07;5.22;;;;;;;17.03;100.00;102607.13;4993255;28;20057;-79
2022/07/09 06:44:12;;;;;;;9.95;4.20;;;;;;;17.05;100.00;102606.28;4972016;28;20061;-79
2022/07/09 06:46:40;;;;;;;6.60;3.70;;;;;;;17.09;100.00;102607.19;4959155;28;20402;-78
2022/07/09 06:49:09;;;;;;;10.98;4.03;;;;;;;17.12;100.00;102607.19;4959964;28;20046;-78
2022/07/09 06:51:40;;;;;;;8.43;3.45;;;;;;;17.16;100.00;102608.97;4965342;28;20046;-79
2022/07/09 06:54:09;;;;;;;5.70;3.45;;;;;;;17.19;100.00;102605.44;4988395;28;20533;-79
2022/07/09 06:56:37;;;;;;;7.25;3.35;;;;;;;17.22;100.00;102616.09;4976135;28;20058;-78
2022/07/09 06:59:06;;;;;;;6.60;3.20;;;;;;;17.26;100.00;102609.91;4960792;28;20054;-78
2022/07/09 07:01:34;;;;;;;8.00;2.92;;;;;;;17.33;100.00;102612.59;4970760;28;20030;-78
2022/07/09 07:04:03;;;;;;;7.63;2.95;;;;;;;17.41;100.00;102601.97;4940803;28;20042;-80
2022/07/09 07:06:32;;;;;;;6.72;2.85;;;;;;;17.48;100.00;102605.50;4981966;28;20041;-78
2022/07/09 07:09:03;;;;;;;7.20;2.38;;;;;;;17.55;100.00;102612.66;4978465;28;20049;-78
2022/07/09 07:11:32;;;;;;;4.03;2.38;;;;;;;17.59;100.00;102608.22;4980964;28;20045;-78
2022/07/09 07:14:00;;;;;;;7.60;2.05;;;;;;;17.63;100.00;102600.22;4988605;28;20054;-79
2022/07/09 07:16:29;;;;;;;8.00;2.50;;;;;;;17.69;100.00;102600.25;4988311;28;20038;-79
2022/07/09 07:18:57;;;;;;;9.63;2.70;;;;;;;17.80;100.00;102605.56;4952697;28;20046;-79
2022/07/09 07:21:26;;;;;;;7.57;2.45;;;;;;;17.91;100.00;102601.16;4998362;28;20267;-78
2022/07/09 07:23:55;;;;;;;7.20;2.33;;;;;;;18.01;100.00;102607.38;4976086;28;20057;-78
2022/07/09 07:26:24;;;;;;;9.03;2.97;;;;;;;18.05;100.00;102603.84;4971079;28;20323;-77
2022/07/09 07:28:54;;;;;;;5.68;1.83;;;;;;;18.12;100.00;102610.06;5006920;28;20052;-78
2022/07/09 07:31:23;;;;;;;6.97;2.40;;;;;;;18.20;100.00;102610.94;4973503;28;20046;-79
2022/07/09 07:33:52;;;;;;;6.78;2.15;;;;;;;18.31;100.00;102611.81;4950064;28;20285;-79
2022/07/09 07:36:20;;;;;;;10.00;2.25;;;;;;;18.36;100.00;102608.28;4990010;28;20074;-79
2022/07/09 07:38:49;;;;;;;5.22;2.00;;;;;;;18.35;100.00;102617.16;4966811;28;20037;-79
2022/07/09 07:41:18;;;;;;;9.07;2.67;;;;;;;18.34;100.00;102608.28;5014772;28;20041;-79
2022/07/09 07:43:47;;;;;;;5.05;1.85;;;;;;;18.41;100.00;102612.72;4994492;28;20041;-79
2022/07/09 07:46:16;;;;;;;4.65;1.90;;;;;;;18.46;100.00;102610.03;4969436;28;20403;-78
2022/07/09 07:48:45;;;;;;;6.45;2.33;;;;;;;18.49;100.00;102615.38;4945427;28;20042;-78
2022/07/09 07:51:13;;;;;;;7.93;2.20;;;;;;;18.50;100.00;102611.81;4975441;28;23198;-78
2022/07/09 07:53:42;;;;;;;11.00;2.30;;;;;;;18.49;100.00;102618.94;4995044;28;20045;-78
2022/07/09 07:56:11;;;;;;;10.38;2.20;;;;;;;18.55;100.00;102614.50;5003213;28;20295;-78
2022/07/09 07:58:40;;;;;;;3.15;2.00;;;;;;;18.60;100.00;102618.94;4995077;28;20038;-77
2022/07/09 08:01:08;;;;;;;5.28;1.70;;;;;;;18.65;100.00;102625.13;4960475;28;20058;-79
2022/07/09 08:03:37;;;;;;;8.80;2.20;;;;;;;18.67;100.00;102620.66;4970434;28;20049;-79
2022/07/09 08:06:07;;;;;;;5.75;2.22;;;;;;;18.64;100.00;102614.47;4961278;28;20030;-79
2022/07/09 08:08:36;;;;;;;3.70;1.80;;;;;;;18.53;100.00;102617.16;4998321;28;20034;-78
2022/07/09 08:11:05;;;;;;;5.40;1.83;;;;;;;18.47;100.00;102618.06;4976081;28;20444;-79
2022/07/09 08:13:34;;;;;;;5.68;1.65;;;;;;;18.45;100.00;102626.94;4960656;28;20052;-78
2022/07/09 08:16:03;;;;;;;4.85;1.70;;;;;;;18.44;100.00;102623.38;4990102;28;20559;-78
2022/07/09 08:18:32;;;;;;;7.05;1.90;;;;;;;18.41;100.00;102627.84;4984070;28;20037;-78
2022/07/09 08:21:02;;;;;;;8.05;2.25;;;;;;;18.41;100.00;102622.50;4974632;28;20056;-78
2022/07/09 08:23:31;;;;;;;6.30;2.38;;;;;;;18.52;100.00;102631.38;4990532;28;20050;-79
2022/07/09 08:26:00;;;;;;;5.68;1.83;;;;;;;18.74;100.00;102621.56;4975056;28;20049;-79
2022/07/09 08:28:28;;;;;;;6.90;1.60;;;;;;;18.82;100.00;102626.91;4971604;28;20038;-78
2022/07/09 08:30:57;;;;;;;8.80;2.00;;;;;;;18.86;100.00;102624.19;4974740;28;20048;-79
2022/07/09 08:33:25;;;;;;;7.65;1.92;;;;;;;18.93;100.00;102618.88;4993621;28;20041;-78
2022/07/09 08:35:54;;;;;;;8.90;1.80;;;;;;;19.07;100.00;102625.03;4935345;28;20053;-78
2022/07/09 08:38:22;;;;;;;3.30;1.60;;;;;;;19.11;100.00;102616.13;4955614;28;20571;-78
2022/07/09 08:40:53;;;;;;;3.33;1.83;;;;;;;19.11;100.00;102620.56;4966010;28;21007;-78
2022/07/09 08:43:24;;;;;;;4.43;1.70;;;;;;;19.08;100.00;102625.03;4965180;28;20394;-79
2022/07/09 08:45:58;;;;;;;7.93;2.15;;;;;;;19.08;100.00;102614.34;4971184;28;20054;-78
2022/07/09 08:48:27;;;;;;;8.40;1.90;;;;;;;19.09;100.00;102629.50;4986346;28;20038;-79
2022/07/09 08:50:57;;;;;;;9.35;2.13;;;;;;;19.12;100.00;102633.91;4951468;28;20075;-79
2022/07/09 08:53:30;;;;;;;7.55;1.98;;;;;;;19.05;100.00;102640.19;4989290;28;20084;-78
2022/07/09 08:56:05;;;;;;;6.65;1.98;;;;;;;18.91;100.00;102634.88;5005328;28;20423;-79
2022/07/09 08:58:38;;;;;;;5.55;1.80;;;;;;;18.82;100.00;102632.25;5008046;28;20041;-79
2022/07/09 09:01:07;;;;;;;9.55;2.35;;;;;;;18.80;100.00;102639.34;5001811;28;20176;-78
2022/07/09 09:03:36;;;;;;;7.47;1.87;;;;;;;18.81;100.00;102628.69;4988341;28;20049;-79
2022/07/09 09:06:06;;;;;;;6.50;1.83;;;;;;;18.83;100.00;102626.91;4945197;28;20050;-78
2022/07/09 09:08:35;;;;;;;4.32;1.58;;;;;;;18.88;100.00;102624.19;4973932;28;20050;-79
2022/07/09 09:11:06;;;;;;;3.35;1.88;;;;;;;18.97;100.00;102625.97;4984557;28;20061;-79
2022/07/09 09:13:42;;;;;;;8.60;1.77;;;;;;;19.02;100.00;102627.72;4985091;28;20051;-79
2022/07/09 09:16:12;;;;;;;4.00;1.58;;;;;;;19.08;100.00;102622.34;4968583;28;20259;-78
2022/07/09 09:18:49;;;;;;;6.20;2.08;;;;;;;19.11;100.00;102618.81;4988492;28;20057;-79
2022/07/09 09:21:21;;;;;;;4.20;1.65;;;;;;;19.12;100.00;102625.91;4968403;28;20046;-78
2022/07/09 09:23:54;;;;;;;7.40;1.98;;;;;;;19.17;100.00;102617.84;4966756;28;20048;-78
2022/07/09 09:26:27;;;;;;;3.63;1.60;;;;;;;19.28;100.00;102603.56;5004803;28;20045;-78
2022/07/09 09:29:01;;;;;;;4.97;1.88;;;;;;;19.42;100.00;102605.28;4981623;28;20034;-78
2022/07/09 09:31:36;;;;;;;5.65;2.22;;;;;;;19.47;100.00;102616.84;4989562;28;20054;-79
2022/07/09 09:34:04;;;;;;;6.57;2.22;;;;;;;19.49;100.00;102623.06;5009112;28;20061;-82
2022/07/09 09:36:40;;;;;;;7.38;1.75;;;;;;;19.50;100.00;102623.94;5003917;28;20054;-78
2022/07/09 09:39:15;;;;;;;7.18;1.80;;;;;;;19.54;100.00;102626.56;4965037;28;20256;-79
2022/07/09 09:41:47;;;;;;;10.50;2.10;;;;;;;19.55;100.00;102616.78;5005319;28;20046;-79
2022/07/09 09:44:36;;;;;;;7.55;2.10;;;;;;;19.54;100.00;102620.34;4981884;28;20050;-79
2022/07/09 09:47:07;;;;;;;5.10;2.25;;;;;;;19.47;100.00;102631.09;4984642;28;20220;-79
2022/07/09 09:49:38;;;;;;;6.57;2.08;;;;;;;19.47;100.00;102631.09;5010831;28;20495;-79
2022/07/09 09:52:10;;;;;;;5.18;1.85;;;;;;;19.46;100.00;102628.41;4955965;28;20050;-79
2022/07/09 09:54:42;;;;;;;8.38;2.90;;;;;;;19.52;100.00;102632.84;4948288;28;20042;-79
2022/07/09 09:57:16;;;;;;;6.40;2.22;;;;;;;19.67;100.00;102641.66;5002055;28;20050;-79
2022/07/09 09:59:45;;;;;;;8.88;3.10;;;;;;;19.67;100.00;102638.09;4963611;28;20054;-80
2022/07/09 10:02:14;;;;;;;5.05;1.98;;;;;;;19.67;100.00;102628.28;4969294;28;20077;-77
2022/07/09 10:04:44;;;;;;;4.30;1.70;;;;;;;19.81;100.00;102630.91;4976643;28;20400;-79
2022/07/09 10:07:14;;;;;;;8.68;1.90;;;;;;;19.90;100.00;102629.94;4992284;28;20362;-79
2022/07/09 10:09:56;;;;;;;;;;;;;;;19.80;100.00;102639.81;4954688;28;20148;-79
2022/07/09 10:12:30;;;;;;;4.38;1.48;;;;;;;19.62;100.00;102631.88;4982353;28;19926;-79
2022/07/09 10:14:59;;;;;;;7.65;1.90;;;;;;;19.55;100.00;102640.84;4963506;28;20461;-78
2022/07/09 10:17:41;;;;;;;6.40;2.00;;;;;;;19.49;100.00;102655.16;4952277;28;20038;-78
2022/07/09 10:20:11;;;;;;;5.45;1.70;;;;;;;19.29;100.00;102649.88;5005385;28;20038;-80
2022/07/09 10:22:48;;;;;;;6.93;1.60;;;;;;;19.03;100.00;102656.19;4970359;28;20058;-79
2022/07/09 10:25:31;;;;;;;5.65;2.10;;;;;;;18.95;100.00;102659.81;4962605;28;20035;-78
2022/07/09 10:27:59;;;;;;;8.02;1.90;;;;;;;18.85;100.00;102675.88;4978028;28;20058;-79
2022/07/09 10:30:33;;;;;;;8.35;2.50;;;;;;;18.69;100.00;102676.75;4958490;28;20050;-79
2022/07/09 10:33:12;;;;;;;10.30;2.30;;;;;;;18.53;100.00;102678.56;4981868;28;20058;-79
2022/07/09 10:35:46;;;;;;;14.45;2.80;;;;;;;18.44;100.00;102674.09;4970534;28;20050;-79
2022/07/09 10:38:16;;;;;;;8.48;2.28;;;;;;;18.41;100.00;102683.88;4985523;28;20051;-80
2022/07/09 10:40:48;;;;;;;7.07;2.03;;;;;;;18.31;100.00;102686.53;4968601;28;20046;-81
2022/07/09 10:43:17;;;;;;;8.35;2.45;;;;;;;18.31;100.00;102691.00;4951215;28;20121;-82
2022/07/09 10:45:46;;;;;;;7.07;2.00;;;;;;;18.22;100.00;102686.56;4981723;28;20030;-82
2022/07/09 10:48:16;;;;;;;10.40;2.45;;;;;;;18.20;100.00;102682.97;4962762;28;20050;-81
2022/07/09 10:50:48;;;;;;;13.80;2.78;;;;;;;18.22;100.00;102685.66;4984471;28;20534;-80
2022/07/09 10:53:31;;;;;;;6.05;2.13;;;;;;;18.22;100.00;102677.66;4977499;28;20046;-86
2022/07/09 10:56:01;;;;;;;9.95;2.53;;;;;;;18.18;100.00;102690.09;4988847;28;20058;-82
2022/07/09 10:58:30;;;;;;;9.68;2.15;;;;;;;18.18;100.00;102671.41;4971837;28;20061;-81
2022/07/09 11:01:02;;;;;;;13.00;2.17;;;;;;;18.24;100.00;102683.88;4976395;28;20050;-82
2022/07/09 11:03:32;;;;;;;7.47;1.80;;;;;;;18.35;100.00;102690.09;4941752;28;20300;-80
2022/07/09 11:06:01;;;;;;;6.78;2.22;;;;;;;18.41;100.00;102695.47;4965607;28;20047;-81
2022/07/09 11:08:31;;;;;;;7.20;1.95;;;;;;;18.57;100.00;102699.00;4960496;28;20043;-80
2022/07/09 11:11:00;;;;;;;11.07;1.98;;;;;;;18.62;100.00;102691.91;4968291;28;20055;-81
2022/07/09 11:13:29;;;;;;;7.60;1.55;;;;;;;18.69;100.00;102688.34;4931386;28;20050;-81
2022/07/09 11:16:00;;;;;;;7.75;1.75;;;;;;;18.86;100.00;102690.97;4948691;28;20046;-83
2022/07/09 11:18:29;;;;;;;6.78;1.50;;;;;;;19.01;100.00;102694.53;4946357;28;20381;-79
2022/07/09 11:20:58;;;;;;;7.07;1.48;;;;;;;19.25;100.00;102688.22;4947410;28;20043;-79
2022/07/09 11:23:26;;;;;;;9.93;1.65;;;;;;;19.32;100.00;102692.66;4960791;28;20035;-80
2022/07/09 11:25:55;;;;;;;10.32;1.73;;;;;;;19.36;99.00;102709.56;4964040;28;20073;-79
2022/07/09 11:28:26;;;;;;;5.70;1.85;;;;;;;19.40;96.93;102708.66;4939579;28;20397;-79